sensor_id;sensor_type;location;lat;lon;timestamp;temperature;humidity
3190;DHT22;1606;51.946;10.558;2022-09-20T00:00:06;13.10;99.90
3190;DHT22;1606;51.946;10.558;2022-09-20T00:02:35;13.10;99.90
3190;DHT22;1606;51.946;10.558;2022-09-20T00:05:04;13.20;99.90
3190;DHT22;1606;51.946;10.558;2022-09-20T00:07:32;13.30;99.90
3190;DHT22;1606;51.946;10.558;2022-09-20T00:10:00;13.20;99.90
3190;DHT22;1606;51.946;10.558;2022-09-20T00:12:27;13.10;99.90
3190;DHT22;1606;51.946;10.558;2022-09-20T00:14:55;12.70;99.90
3190;DHT22;1606;51.946;10.558;2022-09-20T00:17:23;12.90;99.90
3190;DHT22;1606;51.946;10.558;2022-09-20T00:19:52;12.90;99.90
3190;DHT22;1606;51.946;10.558;2022-09-20T00:22:20;13.10;99.90
3190;DHT22;1606;51.946;10.558;2022-09-20T00:24:48;13.00;99.90
3190;DHT22;1606;51.946;10.558;2022-09-20T00:27:15;12.90;99.90
3190;DHT22;1606;51.946;10.558;2022-09-20T00:29:43;12.80;99.90
3190;DHT22;1606;51.946;10.558;2022-09-20T00:32:11;12.70;99.90
3190;DHT22;1606;51.946;10.558;2022-09-20T00:34:39;12.90;99.90
3190;DHT22;1606;51.946;10.558;2022-09-20T00:37:39;13.00;99.90
3190;DHT22;1606;51.946;10.558;2022-09-20T00:40:09;12.80;99.90
3190;DHT22;1606;51.946;10.558;2022-09-20T00:42:37;12.70;99.90
3190;DHT22;1606;51.946;10.558;2022-09-20T00:45:07;12.70;99.90
3190;DHT22;1606;51.946;10.558;2022-09-20T00:47:44;12.70;99.90
3190;DHT22;1606;51.946;10.558;2022-09-20T00:50:23;12.80;99.90
3190;DHT22;1606;51.946;10.558;2022-09-20T00:52:59;12.90;99.90
3190;DHT22;1606;51.946;10.558;2022-09-20T00:55:29;13.10;99.90
3190;DHT22;1606;51.946;10.558;2022-09-20T00:57:57;13.10;99.90
3190;DHT22;1606;51.946;10.558;2022-09-20T01:00:26;12.90;99.90
3190;DHT22;1606;51.946;10.558;2022-09-20T01:02:57;13.00;99.90
3190;DHT22;1606;51.946;10.558;2022-09-20T01:05:25;13.00;99.90
3190;DHT22;1606;51.946;10.558;2022-09-20T01:07:55;12.80;99.90
3190;DHT22;1606;51.946;10.558;2022-09-20T01:10:24;12.60;99.90
3190;DHT22;1606;51.946;10.558;2022-09-20T01:12:52;12.70;99.90
3190;DHT22;1606;51.946;10.558;2022-09-20T01:15:20;12.90;99.90
3190;DHT22;1606;51.946;10.558;2022-09-20T01:17:51;13.00;99.90
3190;DHT22;1606;51.946;10.558;2022-09-20T01:20:22;12.70;99.90
3190;DHT22;1606;51.946;10.558;2022-09-20T01:23:10;12.50;99.90
3190;DHT22;1606;51.946;10.558;2022-09-20T01:28:42;12.40;99.90
3190;DHT22;1606;51.946;10.558;2022-09-20T01:31:16;12.50;99.90
3190;DHT22;1606;51.946;10.558;2022-09-20T01:33:51;12.60;99.90
3190;DHT22;1606;51.946;10.558;2022-09-20T01:36:23;12.50;99.90
3190;DHT22;1606;51.946;10.558;2022-09-20T01:38:59;12.50;99.90
3190;DHT22;1606;51.946;10.558;2022-09-20T01:41:33;12.50;99.90
3190;DHT22;1606;51.946;10.558;2022-09-20T01:44:07;12.40;99.90
3190;DHT22;1606;51.946;10.558;2022-09-20T01:46:41;12.70;99.90
3190;DHT22;1606;51.946;10.558;2022-09-20T01:49:19;12.80;99.90
3190;DHT22;1606;51.946;10.558;2022-09-20T01:55:22;13.10;99.90
3190;DHT22;1606;51.946;10.558;2022-09-20T01:58:31;12.70;99.90
3190;DHT22;1606;51.946;10.558;2022-09-20T02:01:33;12.80;99.90
3190;DHT22;1606;51.946;10.558;2022-09-20T02:07:23;13.20;99.90
3190;DHT22;1606;51.946;10.558;2022-09-20T02:10:14;13.10;99.90
3190;DHT22;1606;51.946;10.558;2022-09-20T02:12:51;13.30;99.90
3190;DHT22;1606;51.946;10.558;2022-09-20T02:15:34;13.30;99.90
3190;DHT22;1606;51.946;10.558;2022-09-20T02:18:19;13.20;99.90
3190;DHT22;1606;51.946;10.558;2022-09-20T02:20:52;13.00;99.90
3190;DHT22;1606;51.946;10.558;2022-09-20T02:23:36;12.90;99.90
3190;DHT22;1606;51.946;10.558;2022-09-20T02:26:14;12.60;99.90
3190;DHT22;1606;51.946;10.558;2022-09-20T02:29:01;12.60;99.90
3190;DHT22;1606;51.946;10.558;2022-09-20T02:31:55;12.70;99.90
3190;DHT22;1606;51.946;10.558;2022-09-20T02:34:42;12.70;99.90
3190;DHT22;1606;51.946;10.558;2022-09-20T02:37:32;12.90;99.90
3190;DHT22;1606;51.946;10.558;2022-09-20T02:40:18;13.10;99.90
3190;DHT22;1606;51.946;10.558;2022-09-20T02:42:56;13.10;99.90
3190;DHT22;1606;51.946;10.558;2022-09-20T02:45:29;13.10;99.90
3190;DHT22;1606;51.946;10.558;2022-09-20T02:48:02;13.00;99.90
3190;DHT22;1606;51.946;10.558;2022-09-20T02:50:37;12.80;99.90
3190;DHT22;1606;51.946;10.558;2022-09-20T02:53:21;12.70;99.90
3190;DHT22;1606;51.946;10.558;2022-09-20T02:56:00;12.70;99.90
3190;DHT22;1606;51.946;10.558;2022-09-20T02:58:37;12.60;99.90
3190;DHT22;1606;51.946;10.558;2022-09-20T03:01:18;12.90;99.90
3190;DHT22;1606;51.946;10.558;2022-09-20T03:03:54;12.60;99.90
3190;DHT22;1606;51.946;10.558;2022-09-20T03:06:32;12.60;99.90
3190;DHT22;1606;51.946;10.558;2022-09-20T03:09:10;12.60;99.90
3190;DHT22;1606;51.946;10.558;2022-09-20T03:11:45;12.90;99.90
3190;DHT22;1606;51.946;10.558;2022-09-20T03:14:18;12.80;99.90
3190;DHT22;1606;51.946;10.558;2022-09-20T03:16:58;12.80;99.90
3190;DHT22;1606;51.946;10.558;2022-09-20T03:19:38;12.40;99.90
3190;DHT22;1606;51.946;10.558;2022-09-20T03:22:20;12.50;99.90
3190;DHT22;1606;51.946;10.558;2022-09-20T03:25:01;12.30;99.90
3190;DHT22;1606;51.946;10.558;2022-09-20T03:27:40;12.20;99.90
3190;DHT22;1606;51.946;10.558;2022-09-20T03:30:26;12.10;99.90
3190;DHT22;1606;51.946;10.558;2022-09-20T03:33:08;12.30;99.90
3190;DHT22;1606;51.946;10.558;2022-09-20T03:35:52;12.30;99.90
3190;DHT22;1606;51.946;10.558;2022-09-20T03:38:37;12.40;99.90
3190;DHT22;1606;51.946;10.558;2022-09-20T03:41:19;12.50;99.90
3190;DHT22;1606;51.946;10.558;2022-09-20T03:44:14;12.50;99.90
3190;DHT22;1606;51.946;10.558;2022-09-20T03:46:50;12.40;99.90
3190;DHT22;1606;51.946;10.558;2022-09-20T03:49:51;12.50;99.90
3190;DHT22;1606;51.946;10.558;2022-09-20T03:52:40;12.60;99.90
3190;DHT22;1606;51.946;10.558;2022-09-20T03:55:41;12.30;99.90
3190;DHT22;1606;51.946;10.558;2022-09-20T03:58:19;12.40;99.90
3190;DHT22;1606;51.946;10.558;2022-09-20T04:00:59;12.40;99.90
3190;DHT22;1606;51.946;10.558;2022-09-20T04:03:36;12.50;99.90
3190;DHT22;1606;51.946;10.558;2022-09-20T04:06:33;12.60;99.90
3190;DHT22;1606;51.946;10.558;2022-09-20T04:12:08;12.60;99.90
3190;DHT22;1606;51.946;10.558;2022-09-20T04:14:43;12.50;99.90
3190;DHT22;1606;51.946;10.558;2022-09-20T04:17:24;12.50;99.90
3190;DHT22;1606;51.946;10.558;2022-09-20T04:19:58;12.70;99.90
3190;DHT22;1606;51.946;10.558;2022-09-20T04:22:28;12.90;99.90
3190;DHT22;1606;51.946;10.558;2022-09-20T04:25:00;12.90;99.90
3190;DHT22;1606;51.946;10.558;2022-09-20T04:27:35;12.80;99.90
3190;DHT22;1606;51.946;10.558;2022-09-20T04:30:09;12.80;99.90
3190;DHT22;1606;51.946;10.558;2022-09-20T04:32:45;13.10;99.90
3190;DHT22;1606;51.946;10.558;2022-09-20T04:35:22;13.40;99.90
3190;DHT22;1606;51.946;10.558;2022-09-20T04:38:12;13.50;99.90
3190;DHT22;1606;51.946;10.558;2022-09-20T04:46:59;13.60;99.90
3190;DHT22;1606;51.946;10.558;2022-09-20T04:50:01;13.60;99.90
3190;DHT22;1606;51.946;10.558;2022-09-20T04:55:49;13.20;99.90
3190;DHT22;1606;51.946;10.558;2022-09-20T04:58:47;13.50;99.90
3190;DHT22;1606;51.946;10.558;2022-09-20T05:11:12;13.40;99.90
3190;DHT22;1606;51.946;10.558;2022-09-20T05:13:57;13.40;99.90
3190;DHT22;1606;51.946;10.558;2022-09-20T05:16:38;13.30;99.90
3190;DHT22;1606;51.946;10.558;2022-09-20T05:19:19;13.10;99.90
3190;DHT22;1606;51.946;10.558;2022-09-20T05:22:08;13.00;99.90
3190;DHT22;1606;51.946;10.558;2022-09-20T05:24:58;13.20;99.90
3190;DHT22;1606;51.946;10.558;2022-09-20T05:27:38;13.40;99.90
3190;DHT22;1606;51.946;10.558;2022-09-20T05:30:29;13.40;99.90
3190;DHT22;1606;51.946;10.558;2022-09-20T05:33:14;13.50;99.90
3190;DHT22;1606;51.946;10.558;2022-09-20T05:35:53;13.50;99.90
3190;DHT22;1606;51.946;10.558;2022-09-20T05:38:27;13.50;99.90
3190;DHT22;1606;51.946;10.558;2022-09-20T05:41:07;13.50;99.90
3190;DHT22;1606;51.946;10.558;2022-09-20T05:43:48;13.50;99.90
3190;DHT22;1606;51.946;10.558;2022-09-20T05:46:31;13.50;99.90
3190;DHT22;1606;51.946;10.558;2022-09-20T05:49:08;13.50;99.90
3190;DHT22;1606;51.946;10.558;2022-09-20T05:51:52;13.50;99.90
3190;DHT22;1606;51.946;10.558;2022-09-20T05:54:34;13.60;99.90
3190;DHT22;1606;51.946;10.558;2022-09-20T05:57:13;13.30;99.90
3190;DHT22;1606;51.946;10.558;2022-09-20T05:59:55;13.20;99.90
3190;DHT22;1606;51.946;10.558;2022-09-20T06:02:33;13.10;99.90
3190;DHT22;1606;51.946;10.558;2022-09-20T06:05:10;12.80;99.90
3190;DHT22;1606;51.946;10.558;2022-09-20T06:07:52;12.90;99.90
3190;DHT22;1606;51.946;10.558;2022-09-20T06:10:37;13.10;99.90
3190;DHT22;1606;51.946;10.558;2022-09-20T06:13:22;12.90;99.90
3190;DHT22;1606;51.946;10.558;2022-09-20T06:15:59;12.90;99.90
3190;DHT22;1606;51.946;10.558;2022-09-20T06:18:32;13.00;99.90
3190;DHT22;1606;51.946;10.558;2022-09-20T06:21:12;12.90;99.90
3190;DHT22;1606;51.946;10.558;2022-09-20T06:23:43;13.00;99.90
3190;DHT22;1606;51.946;10.558;2022-09-20T06:26:15;12.60;99.90
3190;DHT22;1606;51.946;10.558;2022-09-20T06:28:46;12.70;99.90
3190;DHT22;1606;51.946;10.558;2022-09-20T06:31:15;13.00;99.90
3190;DHT22;1606;51.946;10.558;2022-09-20T06:33:50;12.90;99.90
3190;DHT22;1606;51.946;10.558;2022-09-20T06:36:24;13.00;99.90
3190;DHT22;1606;51.946;10.558;2022-09-20T06:39:15;13.10;99.90
3190;DHT22;1606;51.946;10.558;2022-09-20T06:42:03;13.20;99.90
3190;DHT22;1606;51.946;10.558;2022-09-20T06:44:31;13.50;99.90
3190;DHT22;1606;51.946;10.558;2022-09-20T06:46:59;13.50;99.90
3190;DHT22;1606;51.946;10.558;2022-09-20T06:49:28;13.60;99.90
3190;DHT22;1606;51.946;10.558;2022-09-20T06:51:56;13.40;99.90
3190;DHT22;1606;51.946;10.558;2022-09-20T06:54:24;13.40;99.90
3190;DHT22;1606;51.946;10.558;2022-09-20T06:56:52;13.50;99.90
3190;DHT22;1606;51.946;10.558;2022-09-20T06:59:21;13.60;99.90
3190;DHT22;1606;51.946;10.558;2022-09-20T07:01:48;13.60;99.90
3190;DHT22;1606;51.946;10.558;2022-09-20T07:04:17;13.30;99.90
3190;DHT22;1606;51.946;10.558;2022-09-20T07:06:46;13.20;99.90
3190;DHT22;1606;51.946;10.558;2022-09-20T07:09:14;13.30;99.90
3190;DHT22;1606;51.946;10.558;2022-09-20T07:11:42;13.30;99.90
3190;DHT22;1606;51.946;10.558;2022-09-20T07:14:11;13.30;99.90
3190;DHT22;1606;51.946;10.558;2022-09-20T07:16:41;13.50;99.90
3190;DHT22;1606;51.946;10.558;2022-09-20T07:19:08;13.70;99.90
3190;DHT22;1606;51.946;10.558;2022-09-20T07:21:36;13.80;99.90
3190;DHT22;1606;51.946;10.558;2022-09-20T07:24:05;13.70;99.90
3190;DHT22;1606;51.946;10.558;2022-09-20T07:26:33;13.60;99.90
3190;DHT22;1606;51.946;10.558;2022-09-20T07:29:01;13.70;99.90
3190;DHT22;1606;51.946;10.558;2022-09-20T07:31:29;13.80;99.90
3190;DHT22;1606;51.946;10.558;2022-09-20T07:33:57;13.90;99.90
3190;DHT22;1606;51.946;10.558;2022-09-20T07:36:25;14.00;99.90
3190;DHT22;1606;51.946;10.558;2022-09-20T07:38:53;13.80;99.90
3190;DHT22;1606;51.946;10.558;2022-09-20T07:41:22;13.90;99.90
3190;DHT22;1606;51.946;10.558;2022-09-20T07:43:50;13.70;99.90
3190;DHT22;1606;51.946;10.558;2022-09-20T07:46:18;13.60;99.90
3190;DHT22;1606;51.946;10.558;2022-09-20T07:48:47;13.60;99.90
3190;DHT22;1606;51.946;10.558;2022-09-20T07:51:15;13.70;99.90
3190;DHT22;1606;51.946;10.558;2022-09-20T07:53:43;13.80;99.90
3190;DHT22;1606;51.946;10.558;2022-09-20T07:56:12;14.00;99.90
3190;DHT22;1606;51.946;10.558;2022-09-20T07:58:42;14.10;99.90
3190;DHT22;1606;51.946;10.558;2022-09-20T08:01:17;14.10;99.90
3190;DHT22;1606;51.946;10.558;2022-09-20T08:03:46;14.20;99.90
3190;DHT22;1606;51.946;10.558;2022-09-20T08:06:14;14.20;99.90
3190;DHT22;1606;51.946;10.558;2022-09-20T08:08:44;14.10;99.90
3190;DHT22;1606;51.946;10.558;2022-09-20T08:11:13;14.10;99.90
3190;DHT22;1606;51.946;10.558;2022-09-20T08:13:46;14.10;99.90
3190;DHT22;1606;51.946;10.558;2022-09-20T08:16:37;14.00;99.90
3190;DHT22;1606;51.946;10.558;2022-09-20T08:19:05;13.80;99.90
3190;DHT22;1606;51.946;10.558;2022-09-20T08:21:34;13.60;99.90
3190;DHT22;1606;51.946;10.558;2022-09-20T08:24:03;13.60;99.90
3190;DHT22;1606;51.946;10.558;2022-09-20T08:26:32;13.70;99.90
3190;DHT22;1606;51.946;10.558;2022-09-20T08:29:03;14.00;99.90
3190;DHT22;1606;51.946;10.558;2022-09-20T08:31:33;14.00;99.90
3190;DHT22;1606;51.946;10.558;2022-09-20T08:34:03;14.10;99.90
3190;DHT22;1606;51.946;10.558;2022-09-20T08:36:34;14.10;99.90
3190;DHT22;1606;51.946;10.558;2022-09-20T08:39:03;14.10;99.90
3190;DHT22;1606;51.946;10.558;2022-09-20T08:41:53;14.30;99.90
3190;DHT22;1606;51.946;10.558;2022-09-20T08:44:26;14.20;99.90
3190;DHT22;1606;51.946;10.558;2022-09-20T08:47:04;14.00;99.90
3190;DHT22;1606;51.946;10.558;2022-09-20T08:49:33;14.20;99.90
3190;DHT22;1606;51.946;10.558;2022-09-20T08:52:01;14.10;99.90
3190;DHT22;1606;51.946;10.558;2022-09-20T08:54:36;14.00;99.90
3190;DHT22;1606;51.946;10.558;2022-09-20T08:57:12;14.00;99.90
3190;DHT22;1606;51.946;10.558;2022-09-20T08:59:42;14.20;99.90
3190;DHT22;1606;51.946;10.558;2022-09-20T09:02:15;14.40;99.90
3190;DHT22;1606;51.946;10.558;2022-09-20T09:04:44;14.60;99.90
3190;DHT22;1606;51.946;10.558;2022-09-20T09:07:14;14.70;99.90
3190;DHT22;1606;51.946;10.558;2022-09-20T09:09:43;14.70;99.90
3190;DHT22;1606;51.946;10.558;2022-09-20T09:12:17;14.20;99.90
3190;DHT22;1606;51.946;10.558;2022-09-20T09:14:47;13.80;99.90
3190;DHT22;1606;51.946;10.558;2022-09-20T09:17:19;13.90;99.90
3190;DHT22;1606;51.946;10.558;2022-09-20T09:19:54;13.90;99.90
3190;DHT22;1606;51.946;10.558;2022-09-20T09:22:24;14.00;99.90
3190;DHT22;1606;51.946;10.558;2022-09-20T09:25:07;14.10;99.90
3190;DHT22;1606;51.946;10.558;2022-09-20T09:27:49;14.30;99.90
3190;DHT22;1606;51.946;10.558;2022-09-20T09:30:21;14.00;99.90
3190;DHT22;1606;51.946;10.558;2022-09-20T09:32:49;14.20;99.90
3190;DHT22;1606;51.946;10.558;2022-09-20T09:35:24;14.40;99.90
3190;DHT22;1606;51.946;10.558;2022-09-20T09:37:54;14.70;99.90
3190;DHT22;1606;51.946;10.558;2022-09-20T09:40:22;14.60;99.90
3190;DHT22;1606;51.946;10.558;2022-09-20T09:42:52;14.60;99.90
3190;DHT22;1606;51.946;10.558;2022-09-20T09:45:28;14.60;99.90
3190;DHT22;1606;51.946;10.558;2022-09-20T09:47:58;14.80;99.90
3190;DHT22;1606;51.946;10.558;2022-09-20T09:50:28;14.90;99.90
3190;DHT22;1606;51.946;10.558;2022-09-20T09:52:59;14.80;99.90
3190;DHT22;1606;51.946;10.558;2022-09-20T09:55:36;14.80;99.90
3190;DHT22;1606;51.946;10.558;2022-09-20T09:58:12;14.70;99.90
3190;DHT22;1606;51.946;10.558;2022-09-20T10:00:48;15.10;99.90
3190;DHT22;1606;51.946;10.558;2022-09-20T10:03:31;15.10;99.90
3190;DHT22;1606;51.946;10.558;2022-09-20T10:06:08;15.20;99.90
3190;DHT22;1606;51.946;10.558;2022-09-20T10:08:44;15.30;99.90
3190;DHT22;1606;51.946;10.558;2022-09-20T10:11:26;15.00;99.90
3190;DHT22;1606;51.946;10.558;2022-09-20T10:14:02;14.90;99.90
3190;DHT22;1606;51.946;10.558;2022-09-20T10:16:47;14.90;99.90
3190;DHT22;1606;51.946;10.558;2022-09-20T10:19:25;15.00;99.90
3190;DHT22;1606;51.946;10.558;2022-09-20T10:22:03;15.20;99.90
3190;DHT22;1606;51.946;10.558;2022-09-20T10:24:40;15.20;99.90
3190;DHT22;1606;51.946;10.558;2022-09-20T10:27:24;15.40;99.90
3190;DHT22;1606;51.946;10.558;2022-09-20T10:30:01;15.40;99.90
3190;DHT22;1606;51.946;10.558;2022-09-20T10:32:41;15.40;99.90
3190;DHT22;1606;51.946;10.558;2022-09-20T10:35:27;15.30;99.90
3190;DHT22;1606;51.946;10.558;2022-09-20T10:38:10;15.50;99.90
3190;DHT22;1606;51.946;10.558;2022-09-20T10:40:46;15.80;99.90
3190;DHT22;1606;51.946;10.558;2022-09-20T10:43:48;15.60;99.90
3190;DHT22;1606;51.946;10.558;2022-09-20T10:46:29;15.90;99.90
3190;DHT22;1606;51.946;10.558;2022-09-20T10:49:09;15.90;99.90
3190;DHT22;1606;51.946;10.558;2022-09-20T10:51:49;15.70;99.90
3190;DHT22;1606;51.946;10.558;2022-09-20T10:54:27;15.80;99.90
3190;DHT22;1606;51.946;10.558;2022-09-20T10:57:08;15.80;99.90
3190;DHT22;1606;51.946;10.558;2022-09-20T10:59:49;15.90;99.90
3190;DHT22;1606;51.946;10.558;2022-09-20T11:02:34;15.80;99.90
3190;DHT22;1606;51.946;10.558;2022-09-20T11:05:22;16.00;99.90
3190;DHT22;1606;51.946;10.558;2022-09-20T11:08:00;16.30;99.90
3190;DHT22;1606;51.946;10.558;2022-09-20T11:10:33;16.00;99.90
3190;DHT22;1606;51.946;10.558;2022-09-20T11:13:05;16.10;99.90
3190;DHT22;1606;51.946;10.558;2022-09-20T11:15:39;16.30;99.90
3190;DHT22;1606;51.946;10.558;2022-09-20T11:18:11;16.40;99.90
3190;DHT22;1606;51.946;10.558;2022-09-20T11:20:55;16.40;99.90
3190;DHT22;1606;51.946;10.558;2022-09-20T11:23:29;16.40;99.90
3190;DHT22;1606;51.946;10.558;2022-09-20T11:26:06;16.70;99.90
3190;DHT22;1606;51.946;10.558;2022-09-20T11:28:39;16.80;99.90
3190;DHT22;1606;51.946;10.558;2022-09-20T11:31:10;16.50;99.90
3190;DHT22;1606;51.946;10.558;2022-09-20T11:33:44;16.60;99.90
3190;DHT22;1606;51.946;10.558;2022-09-20T11:36:20;16.60;99.90
3190;DHT22;1606;51.946;10.558;2022-09-20T11:38:51;16.40;99.90
3190;DHT22;1606;51.946;10.558;2022-09-20T11:41:24;16.50;99.90
3190;DHT22;1606;51.946;10.558;2022-09-20T11:43:57;16.70;99.90
3190;DHT22;1606;51.946;10.558;2022-09-20T11:46:28;17.10;99.90
3190;DHT22;1606;51.946;10.558;2022-09-20T11:49:00;17.30;99.90
3190;DHT22;1606;51.946;10.558;2022-09-20T11:51:53;17.60;99.90
3190;DHT22;1606;51.946;10.558;2022-09-20T11:57:22;17.90;99.90
3190;DHT22;1606;51.946;10.558;2022-09-20T11:59:52;18.00;99.90
3190;DHT22;1606;51.946;10.558;2022-09-20T12:02:23;18.20;99.90
3190;DHT22;1606;51.946;10.558;2022-09-20T12:04:54;18.30;99.90
3190;DHT22;1606;51.946;10.558;2022-09-20T12:07:25;18.20;99.90
3190;DHT22;1606;51.946;10.558;2022-09-20T12:09:56;18.30;99.70
3190;DHT22;1606;51.946;10.558;2022-09-20T12:12:31;18.50;99.90
3190;DHT22;1606;51.946;10.558;2022-09-20T12:15:04;18.70;99.90
3190;DHT22;1606;51.946;10.558;2022-09-20T12:18:07;19.00;99.00
3190;DHT22;1606;51.946;10.558;2022-09-20T12:20:57;18.80;99.20
3190;DHT22;1606;51.946;10.558;2022-09-20T12:26:43;18.70;99.90
3190;DHT22;1606;51.946;10.558;2022-09-20T12:32:49;19.00;99.80
3190;DHT22;1606;51.946;10.558;2022-09-20T12:38:30;19.10;99.90
3190;DHT22;1606;51.946;10.558;2022-09-20T12:41:02;19.10;99.90
3190;DHT22;1606;51.946;10.558;2022-09-20T12:43:33;18.80;99.90
3190;DHT22;1606;51.946;10.558;2022-09-20T12:46:03;18.70;99.00
3190;DHT22;1606;51.946;10.558;2022-09-20T12:48:37;18.60;98.20
3190;DHT22;1606;51.946;10.558;2022-09-20T12:51:18;18.50;99.70
3190;DHT22;1606;51.946;10.558;2022-09-20T12:54:06;18.20;99.90
3190;DHT22;1606;51.946;10.558;2022-09-20T12:56:38;17.70;99.90
3190;DHT22;1606;51.946;10.558;2022-09-20T12:59:19;17.20;99.90
3190;DHT22;1606;51.946;10.558;2022-09-20T13:01:48;17.00;99.90
3190;DHT22;1606;51.946;10.558;2022-09-20T13:04:39;16.40;99.90
3190;DHT22;1606;51.946;10.558;2022-09-20T13:07:32;16.40;99.90
3190;DHT22;1606;51.946;10.558;2022-09-20T13:13:03;17.20;99.90
3190;DHT22;1606;51.946;10.558;2022-09-20T13:15:36;17.20;99.90
3190;DHT22;1606;51.946;10.558;2022-09-20T13:18:04;16.90;99.90
3190;DHT22;1606;51.946;10.558;2022-09-20T13:20:33;17.00;99.90
3190;DHT22;1606;51.946;10.558;2022-09-20T13:23:03;16.80;99.90
3190;DHT22;1606;51.946;10.558;2022-09-20T13:25:32;16.50;99.90
3190;DHT22;1606;51.946;10.558;2022-09-20T13:28:06;16.70;99.90
3190;DHT22;1606;51.946;10.558;2022-09-20T13:30:36;16.90;99.90
3190;DHT22;1606;51.946;10.558;2022-09-20T13:33:20;17.20;99.90
3190;DHT22;1606;51.946;10.558;2022-09-20T13:35:50;17.60;99.90
3190;DHT22;1606;51.946;10.558;2022-09-20T13:38:26;17.70;99.90
3190;DHT22;1606;51.946;10.558;2022-09-20T13:41:04;17.90;99.90
3190;DHT22;1606;51.946;10.558;2022-09-20T13:43:36;18.00;99.90
3190;DHT22;1606;51.946;10.558;2022-09-20T13:46:13;18.20;99.90
3190;DHT22;1606;51.946;10.558;2022-09-20T13:48:42;18.20;99.90
3190;DHT22;1606;51.946;10.558;2022-09-20T13:51:17;18.40;99.90
3190;DHT22;1606;51.946;10.558;2022-09-20T13:53:45;18.60;99.10
3190;DHT22;1606;51.946;10.558;2022-09-20T13:56:17;18.70;99.00
3190;DHT22;1606;51.946;10.558;2022-09-20T13:58:47;18.70;99.50
3190;DHT22;1606;51.946;10.558;2022-09-20T14:01:22;18.90;97.40
3190;DHT22;1606;51.946;10.558;2022-09-20T14:03:52;18.80;97.20
3190;DHT22;1606;51.946;10.558;2022-09-20T14:06:23;18.80;96.50
3190;DHT22;1606;51.946;10.558;2022-09-20T14:08:56;18.30;96.90
3190;DHT22;1606;51.946;10.558;2022-09-20T14:11:26;18.40;97.90
3190;DHT22;1606;51.946;10.558;2022-09-20T14:13:56;18.20;97.70
3190;DHT22;1606;51.946;10.558;2022-09-20T14:16:30;18.00;98.50
3190;DHT22;1606;51.946;10.558;2022-09-20T14:18:59;18.10;98.90
3190;DHT22;1606;51.946;10.558;2022-09-20T14:21:31;18.20;98.60
3190;DHT22;1606;51.946;10.558;2022-09-20T14:24:04;18.00;98.30
3190;DHT22;1606;51.946;10.558;2022-09-20T14:26:34;18.10;98.60
3190;DHT22;1606;51.946;10.558;2022-09-20T14:29:28;18.30;98.90
3190;DHT22;1606;51.946;10.558;2022-09-20T14:31:59;18.30;99.30
3190;DHT22;1606;51.946;10.558;2022-09-20T14:34:27;18.40;99.50
3190;DHT22;1606;51.946;10.558;2022-09-20T14:37:02;18.70;99.30
3190;DHT22;1606;51.946;10.558;2022-09-20T14:39:44;18.40;98.00
3190;DHT22;1606;51.946;10.558;2022-09-20T14:42:18;18.30;98.80
3190;DHT22;1606;51.946;10.558;2022-09-20T14:44:50;17.90;98.30
3190;DHT22;1606;51.946;10.558;2022-09-20T14:47:26;17.80;98.90
3190;DHT22;1606;51.946;10.558;2022-09-20T14:49:54;17.90;99.20
3190;DHT22;1606;51.946;10.558;2022-09-20T14:52:38;18.20;98.70
3190;DHT22;1606;51.946;10.558;2022-09-20T14:55:21;18.10;98.70
3190;DHT22;1606;51.946;10.558;2022-09-20T14:57:58;18.00;98.20
3190;DHT22;1606;51.946;10.558;2022-09-20T15:00:28;17.90;98.10
3190;DHT22;1606;51.946;10.558;2022-09-20T15:03:05;17.90;98.50
3190;DHT22;1606;51.946;10.558;2022-09-20T15:05:34;18.20;98.30
3190;DHT22;1606;51.946;10.558;2022-09-20T15:08:02;18.10;98.20
3190;DHT22;1606;51.946;10.558;2022-09-20T15:10:30;17.90;98.50
3190;DHT22;1606;51.946;10.558;2022-09-20T15:12:58;17.90;98.80
3190;DHT22;1606;51.946;10.558;2022-09-20T15:15:26;17.90;98.40
3190;DHT22;1606;51.946;10.558;2022-09-20T15:17:53;17.80;98.80
3190;DHT22;1606;51.946;10.558;2022-09-20T15:20:22;17.70;99.10
3190;DHT22;1606;51.946;10.558;2022-09-20T15:22:50;17.70;99.30
3190;DHT22;1606;51.946;10.558;2022-09-20T15:25:19;17.80;99.70
3190;DHT22;1606;51.946;10.558;2022-09-20T15:27:47;17.90;99.60
3190;DHT22;1606;51.946;10.558;2022-09-20T15:30:17;18.00;99.70
3190;DHT22;1606;51.946;10.558;2022-09-20T15:32:46;17.80;99.10
3190;DHT22;1606;51.946;10.558;2022-09-20T15:35:14;17.80;99.30
3190;DHT22;1606;51.946;10.558;2022-09-20T15:37:43;17.80;99.80
3190;DHT22;1606;51.946;10.558;2022-09-20T15:40:11;17.80;99.60
3190;DHT22;1606;51.946;10.558;2022-09-20T15:42:39;17.80;99.90
3190;DHT22;1606;51.946;10.558;2022-09-20T15:45:09;17.80;99.90
3190;DHT22;1606;51.946;10.558;2022-09-20T15:47:38;17.70;99.90
3190;DHT22;1606;51.946;10.558;2022-09-20T15:50:07;17.70;99.90
3190;DHT22;1606;51.946;10.558;2022-09-20T15:52:37;17.60;99.90
3190;DHT22;1606;51.946;10.558;2022-09-20T15:55:08;17.60;99.90
3190;DHT22;1606;51.946;10.558;2022-09-20T15:57:36;17.40;99.90
3190;DHT22;1606;51.946;10.558;2022-09-20T16:00:06;17.10;99.90
3190;DHT22;1606;51.946;10.558;2022-09-20T16:02:34;16.90;99.90
3190;DHT22;1606;51.946;10.558;2022-09-20T16:05:02;16.70;99.90
3190;DHT22;1606;51.946;10.558;2022-09-20T16:07:31;16.50;99.90
3190;DHT22;1606;51.946;10.558;2022-09-20T16:09:59;16.40;99.90
3190;DHT22;1606;51.946;10.558;2022-09-20T16:12:28;16.50;99.90
3190;DHT22;1606;51.946;10.558;2022-09-20T16:14:56;16.70;99.90
3190;DHT22;1606;51.946;10.558;2022-09-20T16:17:23;16.80;99.90
3190;DHT22;1606;51.946;10.558;2022-09-20T16:20:06;17.00;99.90
3190;DHT22;1606;51.946;10.558;2022-09-20T16:22:34;16.80;99.90
3190;DHT22;1606;51.946;10.558;2022-09-20T16:25:02;16.70;99.90
3190;DHT22;1606;51.946;10.558;2022-09-20T16:27:32;16.70;99.90
3190;DHT22;1606;51.946;10.558;2022-09-20T16:30:00;16.80;99.90
3190;DHT22;1606;51.946;10.558;2022-09-20T16:32:29;16.60;99.90
3190;DHT22;1606;51.946;10.558;2022-09-20T16:34:56;16.60;99.90
3190;DHT22;1606;51.946;10.558;2022-09-20T16:37:26;16.70;99.90
3190;DHT22;1606;51.946;10.558;2022-09-20T16:39:58;16.50;99.90
3190;DHT22;1606;51.946;10.558;2022-09-20T16:42:26;16.40;99.90
3190;DHT22;1606;51.946;10.558;2022-09-20T16:44:56;16.60;99.90
3190;DHT22;1606;51.946;10.558;2022-09-20T16:47:24;16.70;99.90
3190;DHT22;1606;51.946;10.558;2022-09-20T16:49:51;16.70;99.90
3190;DHT22;1606;51.946;10.558;2022-09-20T16:52:20;16.60;99.90
3190;DHT22;1606;51.946;10.558;2022-09-20T16:54:48;16.40;99.90
3190;DHT22;1606;51.946;10.558;2022-09-20T16:57:15;16.50;99.90
3190;DHT22;1606;51.946;10.558;2022-09-20T16:59:43;16.60;99.90
3190;DHT22;1606;51.946;10.558;2022-09-20T17:02:13;16.80;99.90
3190;DHT22;1606;51.946;10.558;2022-09-20T17:04:41;16.80;99.90
3190;DHT22;1606;51.946;10.558;2022-09-20T17:07:09;16.80;99.90
3190;DHT22;1606;51.946;10.558;2022-09-20T17:09:37;16.90;99.90
3190;DHT22;1606;51.946;10.558;2022-09-20T17:12:05;16.80;99.90
3190;DHT22;1606;51.946;10.558;2022-09-20T17:14:35;16.80;99.90
3190;DHT22;1606;51.946;10.558;2022-09-20T17:17:03;16.90;99.90
3190;DHT22;1606;51.946;10.558;2022-09-20T17:19:33;16.80;99.90